createdAt,value
2023-08-14T00:01:46.839Z,2.08
2023-08-14T00:05:13.951Z,2.08
2023-08-14T00:08:43.378Z,2.35
2023-08-14T00:12:06.536Z,2.30
2023-08-14T00:15:31.431Z,2.17
2023-08-14T00:18:58.589Z,1.92
2023-08-14T00:22:26.190Z,2.45
2023-08-14T00:25:53.270Z,2.00
2023-08-14T00:29:16.361Z,2.20
2023-08-14T00:32:41.352Z,1.90
2023-08-14T00:36:10.829Z,2.00
2023-08-14T00:39:37.912Z,2.20
2023-08-14T00:43:01.407Z,2.15
2023-08-14T00:46:24.700Z,2.08
2023-08-14T00:49:47.681Z,2.20
2023-08-14T00:53:15.260Z,1.98
2023-08-14T00:56:42.819Z,1.90
2023-08-14T01:00:06.766Z,2.25
2023-08-14T01:03:43.662Z,2.13
2023-08-14T01:07:08.974Z,1.95
2023-08-14T01:10:40.206Z,1.90
2023-08-14T01:14:03.745Z,2.10
2023-08-14T01:17:33.297Z,2.00
2023-08-14T01:21:00.462Z,2.25
2023-08-14T01:24:25.782Z,2.20
2023-08-14T01:27:53.145Z,2.15
2023-08-14T01:31:18.656Z,2.15
2023-08-14T01:34:45.617Z,2.10
2023-08-14T01:38:10.894Z,1.92
2023-08-14T01:41:49.662Z,2.10
2023-08-14T01:45:13.014Z,1.90
2023-08-14T01:48:37.971Z,1.98
2023-08-14T01:52:01.650Z,2.30
2023-08-14T01:55:35.493Z,2.33
2023-08-14T01:58:58.742Z,2.30
2023-08-14T02:02:26.075Z,2.13
2023-08-14T02:06:02.645Z,1.90
2023-08-14T02:09:30.112Z,1.85
2023-08-14T02:13:03.643Z,2.40
2023-08-14T02:16:27.201Z,2.30
2023-08-14T02:19:52.493Z,2.10
2023-08-14T02:23:21.622Z,1.77
2023-08-14T02:26:48.736Z,2.00
2023-08-14T02:30:14.378Z,2.42
2023-08-14T02:33:37.591Z,2.00
2023-08-14T02:37:05.302Z,2.50
2023-08-14T02:40:30.724Z,2.60
2023-08-14T02:44:09.545Z,2.40
2023-08-14T02:47:32.634Z,2.50
2023-08-14T02:50:56.399Z,2.20
2023-08-14T02:54:19.794Z,2.35
2023-08-14T02:57:52.712Z,1.88
2023-08-14T03:01:24.414Z,2.33
2023-08-14T03:04:47.482Z,2.30
2023-08-14T03:08:16.690Z,2.45
2023-08-14T03:11:42.195Z,1.85
2023-08-14T03:15:22.496Z,2.17
2023-08-14T03:18:45.422Z,2.20
2023-08-14T03:22:08.614Z,2.05
2023-08-14T03:25:33.468Z,2.30
2023-08-14T03:29:08.429Z,2.30
2023-08-14T03:32:37.356Z,2.35
2023-08-14T03:36:00.342Z,2.35
2023-08-14T03:39:23.539Z,2.22
2023-08-14T03:42:54.849Z,2.40
2023-08-14T03:46:27.787Z,2.40
2023-08-14T03:49:51.076Z,2.40
2023-08-14T03:53:14.451Z,2.83
2023-08-14T03:56:39.383Z,3.00
2023-08-14T04:00:06.576Z,2.92
2023-08-14T04:03:30.593Z,2.47
2023-08-14T04:06:54.184Z,2.63
2023-08-14T04:10:19.344Z,2.50
2023-08-14T04:13:42.450Z,2.45
2023-08-14T04:17:23.569Z,2.53
2023-08-14T04:20:46.699Z,2.53
2023-08-14T04:24:12.284Z,2.80
2023-08-14T04:27:42.139Z,2.65
2023-08-14T04:31:05.561Z,2.75
2023-08-14T04:34:30.492Z,2.33
2023-08-14T04:37:54.480Z,2.72
2023-08-14T04:41:21.706Z,2.80
2023-08-14T04:44:45.021Z,2.20
2023-08-14T04:48:21.438Z,2.45
2023-08-14T04:51:44.732Z,2.30
2023-08-14T04:55:11.755Z,2.45
2023-08-14T04:58:45.569Z,3.15
2023-08-14T05:02:09.311Z,2.70
2023-08-14T05:05:41.368Z,2.42
2023-08-14T05:09:20.060Z,2.50
2023-08-14T05:12:50.927Z,2.40
2023-08-14T05:16:16.426Z,2.20
2023-08-14T05:19:41.933Z,2.88
2023-08-14T05:23:05.314Z,2.10
2023-08-14T05:26:30.683Z,2.13
2023-08-14T05:30:07.979Z,2.25
2023-08-14T05:33:35.299Z,2.30
2023-08-14T05:37:13.109Z,2.45
2023-08-14T05:40:36.276Z,2.30
2023-08-14T05:44:05.596Z,2.22
2023-08-14T05:47:33.331Z,2.38
2023-08-14T05:51:02.908Z,2.15
2023-08-14T05:54:26.393Z,2.50
2023-08-14T05:57:53.752Z,2.63
2023-08-14T06:01:23.832Z,2.30
2023-08-14T06:04:59.243Z,2.58
2023-08-14T06:08:28.326Z,2.40
2023-08-14T06:11:51.560Z,2.42
2023-08-14T06:15:20.533Z,2.58
2023-08-14T06:18:43.610Z,2.60
2023-08-14T06:22:12.724Z,2.45
2023-08-14T06:25:41.977Z,2.42
2023-08-14T06:29:12.045Z,2.33
2023-08-14T06:32:43.814Z,2.47
2023-08-14T06:36:10.071Z,2.42
2023-08-14T06:39:48.662Z,2.50
2023-08-14T06:43:11.993Z,2.35
2023-08-14T06:46:36.829Z,2.20
2023-08-14T06:50:19.407Z,2.33
2023-08-14T06:53:48.349Z,2.28
2023-08-14T06:57:15.928Z,2.67
2023-08-14T07:00:41.598Z,2.53
2023-08-14T07:04:18.685Z,2.40
2023-08-14T07:07:42.289Z,2.42
2023-08-14T07:11:09.691Z,2.50
2023-08-14T07:14:33.090Z,2.35
2023-08-14T07:18:02.733Z,2.40
2023-08-14T07:21:26.241Z,2.50
2023-08-14T07:24:56.967Z,2.60
2023-08-14T07:28:28.182Z,2.53
2023-08-14T07:31:53.647Z,2.17
2023-08-14T07:35:20.698Z,2.33
2023-08-14T07:38:47.937Z,2.30
2023-08-14T07:42:26.747Z,2.75
2023-08-14T07:45:50.500Z,2.58
2023-08-14T07:49:16.067Z,2.28
2023-08-14T07:52:41.788Z,2.50
2023-08-14T07:56:17.746Z,2.10
2023-08-14T07:59:40.964Z,2.13
2023-08-14T08:03:08.040Z,2.40
2023-08-14T08:06:44.986Z,2.08
2023-08-14T08:10:10.947Z,2.28
2023-08-14T08:13:49.392Z,2.15
2023-08-14T08:17:12.381Z,2.03
2023-08-14T08:20:41.760Z,1.90
2023-08-14T08:24:08.854Z,1.80
2023-08-14T08:27:38.526Z,2.40
2023-08-14T08:31:01.677Z,2.28
2023-08-14T08:34:27.518Z,2.20
2023-08-14T08:38:03.761Z,2.20
2023-08-14T08:41:29.524Z,2.17
2023-08-14T08:45:00.860Z,2.03
2023-08-14T08:48:24.564Z,2.22
2023-08-14T08:51:53.913Z,1.85
2023-08-14T08:55:17.676Z,2.33
2023-08-14T08:58:52.048Z,2.33
2023-08-14T09:02:21.663Z,2.20
2023-08-14T09:05:47.305Z,1.77
2023-08-14T09:09:23.949Z,2.47
2023-08-14T09:12:49.307Z,2.03
2023-08-14T09:16:29.672Z,2.22
2023-08-14T09:19:52.748Z,2.00
2023-08-14T09:23:17.956Z,1.95
2023-08-14T09:26:41.431Z,1.88
2023-08-14T09:30:10.796Z,2.13
2023-08-14T09:33:34.027Z,1.92
2023-08-14T09:36:59.265Z,1.95
2023-08-14T09:40:35.894Z,2.00
2023-08-14T09:44:05.395Z,2.08
2023-08-14T09:47:34.786Z,2.17
2023-08-14T09:50:58.251Z,2.30
2023-08-14T09:54:27.455Z,2.10
2023-08-14T09:57:52.382Z,2.03
2023-08-14T10:01:28.847Z,2.50
2023-08-14T10:04:54.301Z,2.22
2023-08-14T10:08:23.223Z,2.08
2023-08-14T10:11:59.803Z,2.95
2023-08-14T10:15:24.825Z,2.15
2023-08-14T10:18:47.921Z,2.17
2023-08-14T10:22:11.011Z,2.00
2023-08-14T10:25:40.561Z,2.38
2023-08-14T10:29:06.182Z,2.83
2023-08-14T10:32:34.338Z,2.08
2023-08-14T10:35:59.632Z,1.90
2023-08-14T10:43:00.847Z,2.03
2023-08-14T10:46:29.771Z,1.80
2023-08-14T10:49:57.382Z,1.92
2023-08-14T10:53:20.696Z,2.00
2023-08-14T10:56:44.469Z,1.90
2023-08-14T11:00:10.440Z,1.80
2023-08-14T11:03:40.035Z,2.03
2023-08-14T11:07:11.876Z,1.98
2023-08-14T11:10:35.458Z,2.20
2023-08-14T11:14:01.373Z,2.22
2023-08-14T11:17:27.848Z,1.95
2023-08-14T11:21:01.325Z,1.80
2023-08-14T11:24:32.749Z,2.20
2023-08-14T11:27:58.776Z,2.10
2023-08-14T11:31:31.199Z,1.80
2023-08-14T11:35:03.883Z,1.95
2023-08-14T11:38:29.956Z,1.90
2023-08-14T11:41:53.384Z,1.73
2023-08-14T11:45:18.712Z,1.88
2023-08-14T11:48:42.858Z,2.03
2023-08-14T11:52:10.662Z,1.90
2023-08-14T11:55:36.253Z,1.73
2023-08-14T11:59:07.556Z,1.70
2023-08-14T12:02:35.494Z,1.77
2023-08-14T12:05:59.057Z,1.52
2023-08-14T12:09:24.570Z,1.48
2023-08-14T12:12:55.836Z,1.58
2023-08-14T12:16:24.801Z,1.40
2023-08-14T12:19:56.933Z,1.52
2023-08-14T12:23:24.242Z,1.83
2023-08-14T12:26:48.041Z,1.70
2023-08-14T12:30:15.140Z,1.58
2023-08-14T12:33:42.391Z,1.55
2023-08-14T12:37:10.483Z,1.48
2023-08-14T12:40:37.501Z,1.40
2023-08-14T12:44:00.867Z,1.42
2023-08-14T12:47:26.357Z,1.00
2023-08-14T12:50:52.203Z,1.25
2023-08-14T12:54:21.949Z,1.30
2023-08-14T12:57:48.624Z,1.40
2023-08-14T13:01:12.733Z,1.20
2023-08-14T13:08:12.506Z,0.95
2023-08-14T13:11:41.638Z,0.90
2023-08-14T13:15:06.539Z,1.17
2023-08-14T13:18:30.028Z,1.13
2023-08-14T13:21:55.131Z,1.10
2023-08-14T13:25:25.253Z,1.00
2023-08-14T13:28:52.860Z,1.30
2023-08-14T13:35:39.410Z,1.20
2023-08-14T13:39:02.992Z,1.17
2023-08-14T13:42:28.030Z,1.55
2023-08-14T13:45:51.134Z,1.20
2023-08-14T13:49:16.492Z,1.42
2023-08-14T13:52:52.994Z,1.35
2023-08-14T13:56:17.941Z,1.23
2023-08-14T13:59:47.182Z,1.35
2023-08-14T14:03:26.585Z,1.50
2023-08-14T14:06:58.007Z,1.30
2023-08-14T14:10:27.230Z,1.27
2023-08-14T14:14:08.770Z,1.42
2023-08-14T14:17:32.487Z,1.10
2023-08-14T14:20:55.677Z,1.35
2023-08-14T14:24:22.637Z,1.40
2023-08-14T14:27:48.443Z,1.20
2023-08-14T14:31:23.802Z,1.17
2023-08-14T14:35:03.446Z,1.35
2023-08-14T14:38:30.361Z,1.15
2023-08-14T14:41:53.993Z,1.10
2023-08-14T14:45:34.147Z,1.17
2023-08-14T14:49:06.609Z,0.98
2023-08-14T14:52:31.925Z,1.48
2023-08-14T14:56:00.280Z,1.10
2023-08-14T14:59:23.910Z,1.08
2023-08-14T15:02:51.458Z,1.83
2023-08-14T15:06:16.939Z,0.95
2023-08-14T15:09:42.314Z,1.20
2023-08-14T15:13:07.362Z,1.30
2023-08-14T15:16:35.915Z,1.33
2023-08-14T15:19:59.219Z,1.15
2023-08-14T15:23:26.308Z,1.20
2023-08-14T15:27:03.103Z,1.00
2023-08-14T15:30:28.358Z,1.30
2023-08-14T15:34:02.999Z,1.10
2023-08-14T15:37:26.748Z,1.50
2023-08-14T15:40:51.828Z,1.30
2023-08-14T15:44:21.346Z,1.30
2023-08-14T15:47:58.044Z,1.30
2023-08-14T15:51:23.125Z,1.27
2023-08-14T15:54:53.756Z,1.50
2023-08-14T15:58:26.015Z,1.40
2023-08-14T16:01:50.965Z,1.50
2023-08-14T16:05:20.664Z,1.30
2023-08-14T16:08:43.718Z,1.70
2023-08-14T16:12:09.396Z,1.30
2023-08-14T16:15:32.407Z,1.70
2023-08-14T16:19:02.433Z,1.30
2023-08-14T16:22:25.623Z,1.30
2023-08-14T16:25:49.153Z,1.13
2023-08-14T16:29:19.100Z,1.45
2023-08-14T16:32:47.456Z,1.60
2023-08-14T16:36:21.941Z,1.70
2023-08-14T16:43:00.326Z,1.40
2023-08-14T16:46:23.379Z,1.40
2023-08-14T16:49:52.644Z,1.73
2023-08-14T16:53:16.148Z,1.60
2023-08-14T16:56:40.058Z,1.85
2023-08-14T17:00:05.500Z,1.85
2023-08-14T17:03:30.628Z,1.77
2023-08-14T17:07:00.055Z,1.80
2023-08-14T17:10:23.372Z,1.65
2023-08-14T17:13:47.198Z,1.75
2023-08-14T17:17:15.983Z,1.80
2023-08-14T17:20:41.371Z,1.67
2023-08-14T17:24:21.895Z,1.83
2023-08-14T17:27:45.976Z,1.92
2023-08-14T17:31:11.071Z,2.00
2023-08-14T17:34:36.714Z,1.95
2023-08-14T17:38:04.118Z,2.22
2023-08-14T17:41:27.592Z,2.58
2023-08-14T17:44:52.513Z,2.78
2023-08-14T17:48:24.210Z,2.58
2023-08-14T17:51:47.389Z,2.95
2023-08-14T17:55:22.519Z,2.58
2023-08-14T17:58:45.887Z,2.42
2023-08-14T18:02:13.283Z,2.83
2023-08-14T18:05:40.806Z,3.00
2023-08-14T18:09:10.266Z,3.20
2023-08-14T18:12:33.579Z,3.13
2023-08-14T18:15:59.185Z,2.97
2023-08-14T18:19:30.040Z,3.20
2023-08-14T18:22:55.387Z,3.38
2023-08-14T18:26:25.318Z,3.53
2023-08-14T18:29:49.189Z,3.88
2023-08-14T18:33:20.742Z,3.83
2023-08-14T18:36:52.809Z,3.88
2023-08-14T18:44:48.774Z,4.07
2023-08-14T18:48:11.634Z,4.72
2023-08-14T18:51:41.071Z,4.70
2023-08-14T18:55:06.500Z,5.95
2023-08-14T18:58:34.131Z,6.00
2023-08-14T19:02:01.802Z,7.30
2023-08-14T19:05:33.437Z,8.43
2023-08-14T19:08:56.857Z,11.07
2023-08-14T19:12:25.827Z,10.95
2023-08-14T19:15:49.078Z,11.30
2023-08-14T19:19:15.193Z,11.07
2023-08-14T19:22:42.275Z,10.63
2023-08-14T19:26:14.980Z,10.40
2023-08-14T19:29:58.504Z,8.75
2023-08-14T19:33:23.258Z,8.20
2023-08-14T19:36:50.495Z,7.60
2023-08-14T19:40:24.403Z,6.70
2023-08-14T19:43:53.438Z,6.47
2023-08-14T19:47:30.087Z,6.80
2023-08-14T19:50:55.073Z,5.85
2023-08-14T19:54:26.273Z,5.82
2023-08-14T19:57:49.959Z,6.30
2023-08-14T20:01:15.684Z,5.90
2023-08-14T20:04:38.973Z,5.45
2023-08-14T20:08:06.237Z,5.13
2023-08-14T20:11:33.619Z,5.38
2023-08-14T20:15:00.753Z,5.93
2023-08-14T20:18:28.046Z,5.53
2023-08-14T20:21:53.448Z,5.60
2023-08-14T20:25:23.260Z,5.40
2023-08-14T20:28:52.479Z,4.75
2023-08-14T20:32:21.648Z,5.40
2023-08-14T20:35:45.179Z,5.57
2023-08-14T20:39:14.597Z,5.55
2023-08-14T20:42:42.150Z,5.45
2023-08-14T20:46:11.911Z,5.20
2023-08-14T20:49:36.937Z,5.20
2023-08-14T20:52:59.919Z,4.63
2023-08-14T20:56:30.164Z,4.93
2023-08-14T20:59:55.400Z,4.90
2023-08-14T21:03:25.043Z,4.43
2023-08-14T21:06:48.726Z,4.82
2023-08-14T21:10:15.797Z,4.75
2023-08-14T21:13:45.954Z,4.50
2023-08-14T21:17:37.152Z,5.10
2023-08-14T21:21:06.278Z,5.03
2023-08-14T21:24:36.202Z,5.10
2023-08-14T21:27:59.366Z,4.75
2023-08-14T21:31:28.934Z,4.47
2023-08-14T21:34:54.426Z,4.50
2023-08-14T21:38:17.621Z,4.55
2023-08-14T21:41:44.555Z,4.30
2023-08-14T21:45:07.709Z,5.40
2023-08-14T21:48:40.727Z,4.30
2023-08-14T21:52:07.365Z,4.13
2023-08-14T21:55:30.880Z,4.43
2023-08-14T21:58:58.307Z,4.93
2023-08-14T22:02:24.305Z,4.60
2023-08-14T22:05:53.736Z,4.38
2023-08-14T22:09:19.061Z,4.63
2023-08-14T22:12:42.615Z,5.25
2023-08-14T22:16:05.783Z,4.97
2023-08-14T22:19:32.971Z,5.15
2023-08-14T22:22:59.885Z,5.05
2023-08-14T22:26:23.074Z,4.97
2023-08-14T22:29:48.188Z,5.00
2023-08-14T22:33:17.283Z,4.88
2023-08-14T22:36:44.804Z,5.60
2023-08-14T22:40:08.412Z,5.82
2023-08-14T22:43:35.625Z,5.60
2023-08-14T22:47:07.343Z,6.03
2023-08-14T22:50:30.698Z,5.65
2023-08-14T22:54:01.756Z,5.45
2023-08-14T22:57:24.489Z,5.18
2023-08-14T23:00:49.730Z,4.65
2023-08-14T23:04:12.802Z,5.28
2023-08-14T23:07:44.405Z,5.18
2023-08-14T23:11:11.633Z,3.85
2023-08-14T23:14:38.575Z,3.85
2023-08-14T23:18:06.192Z,4.30
2023-08-14T23:21:31.783Z,4.32
2023-08-14T23:25:09.269Z,4.05
2023-08-14T23:28:32.139Z,4.18
2023-08-14T23:31:59.366Z,4.03
2023-08-14T23:35:22.610Z,4.20
2023-08-14T23:38:52.093Z,4.25
2023-08-14T23:42:15.131Z,4.18
2023-08-14T23:45:38.416Z,4.10
2023-08-14T23:49:04.083Z,4.20
2023-08-14T23:52:33.568Z,4.00
2023-08-14T23:56:14.285Z,4.45
2023-08-14T23:59:37.530Z,4.43
